Hlavní strana
METAR-TAF:

METAR-TAF

Letiště :

Letiště Riga

Riga, Lotyšsko

zeměpisná šířka: 56-55N, zeměpisná délka: 023-58E, výška: 10 m

Aktuální stav počasí

Zpráva byla vytvořena před 5 minutami, v 13:20 UTC
Jihojihovýchodní vítr 11 kt
Teplota 5°C
Vlhkost vzduchu 70%
Tlak 1029 hPa
Viditelnost 10 km a více
Polojasno ve výšce 2400 ft
Zataženo ve výšce 3900 ft

METAR: EVRA 211320Z 15011KT 9999 SCT024 OVC039 05/00 Q1029 R18/090095 NOSIG

Čas: 15:25 (13:25 UTC)

Předpověď počasí

Zpráva byla vytvořena před 2 hodinami a 17 minutami, v 11:08 UTC
Předpověď platná od 21 v 12 UTC do 22 v 12 UTC
Jihovýchodní vítr 12 kt
Viditelnost 10 km a více
Zataženo ve výšce 2000 ft
Dočasný
od 21 v 12 UTC do 21 v 24 UTC
Jihovýchodní vítr 15 kt s nárazy do 28 kt
Dočasný
od 22 v 06 UTC do 22 v 12 UTC
Jihovýchodní vítr 15 kt s nárazy do 28 kt

TAF: EVRA 211108Z 2112/2212 13012KT 9999 OVC020 TEMPO 2112/2124 14015G28KT TEMPO 2206/2212 14015G28KT

Stav a předpovědi počasí z více než 4 000 letišť (zprávy METAR a TAF).

Červené a žluté tečky na mapě představují dostupné meteorologické stanice.

Když kurzor umístíte na tečku, zobrazí se název stanice.

Pak kliknutím zobrazíte stav a předpověď počasí.

Chcete-li změnit mapu, kliknutím na zelené tlačítko se znaménkem +mapu přiblížíte, kliknutím na zelené tlačítko se znaménkem – mapu oddálíte a kliknutím na zelené šipky přejdete na sousední mapy.


METAR-TAF: